createdAt,value
2019-06-07T00:00:38.205Z,2.90
2019-06-07T00:03:00.114Z,2.50
2019-06-07T00:05:30.911Z,3.50
2019-06-07T00:08:07.624Z,3.03
2019-06-07T00:10:37.053Z,2.80
2019-06-07T00:13:07.251Z,2.90
2019-06-07T00:15:38.084Z,2.43
2019-06-07T00:18:12.260Z,2.63
2019-06-07T00:20:41.539Z,3.23
2019-06-07T00:23:14.930Z,2.60
2019-06-07T00:25:44.824Z,3.17
2019-06-07T00:28:17.293Z,2.80
2019-06-07T00:30:52.207Z,2.33
2019-06-07T00:33:24.109Z,1.93
2019-06-07T00:35:52.860Z,2.43
2019-06-07T00:38:23.642Z,2.33
2019-06-07T00:40:54.509Z,2.30
2019-06-07T00:43:28.224Z,2.33
2019-06-07T00:45:58.029Z,2.00
2019-06-07T00:48:32.773Z,2.00
2019-06-07T00:51:01.668Z,2.10
2019-06-07T00:53:32.790Z,2.00
2019-06-07T00:56:03.868Z,2.33
2019-06-07T00:58:34.843Z,2.33
2019-06-07T01:01:05.943Z,2.30
2019-06-07T01:03:36.829Z,2.37
2019-06-07T01:06:07.713Z,2.67
2019-06-07T01:08:38.518Z,2.80
2019-06-07T01:11:09.379Z,2.27
2019-06-07T01:13:40.449Z,2.23
2019-06-07T01:16:11.334Z,2.17
2019-06-07T01:18:46.543Z,2.13
2019-06-07T01:21:15.820Z,2.00
2019-06-07T01:24:08.910Z,2.43
2019-06-07T01:26:21.938Z,2.40
2019-06-07T01:28:52.048Z,1.90
2019-06-07T01:31:25.335Z,2.53
2019-06-07T01:33:55.449Z,2.20
2019-06-07T01:36:29.483Z,2.67
2019-06-07T01:39:00.628Z,2.30
2019-06-07T01:41:31.551Z,2.53
2019-06-07T01:44:02.346Z,2.47
2019-06-07T01:46:33.320Z,2.70
2019-06-07T01:49:04.149Z,3.30
2019-06-07T01:51:35.578Z,2.43
2019-06-07T01:54:49.564Z,3.53
2019-06-07T01:56:38.928Z,2.43
2019-06-07T01:59:09.838Z,3.13
2019-06-07T02:01:40.829Z,3.57
2019-06-07T02:04:11.688Z,2.83
2019-06-07T02:06:42.498Z,3.23
2019-06-07T02:09:13.284Z,3.27
2019-06-07T02:11:44.149Z,4.20
2019-06-07T02:14:14.985Z,3.97
2019-06-07T02:16:45.895Z,4.03
2019-06-07T02:19:16.783Z,3.57
2019-06-07T02:21:47.614Z,3.13
2019-06-07T02:24:18.508Z,3.80
2019-06-07T02:26:49.350Z,3.50
2019-06-07T02:29:20.493Z,4.57
2019-06-07T02:31:51.490Z,4.33
2019-06-07T02:34:24.107Z,3.57
2019-06-07T02:36:54.637Z,4.60
2019-06-07T02:39:28.207Z,4.03
2019-06-07T02:41:57.994Z,3.97
2019-06-07T02:44:34.922Z,4.03
2019-06-07T02:47:01.185Z,4.20
2019-06-07T02:49:39.660Z,3.87
2019-06-07T02:52:04.751Z,4.30
2019-06-07T02:54:39.615Z,4.60
2019-06-07T02:57:07.998Z,4.23
2019-06-07T03:00:04.457Z,4.10
2019-06-07T03:02:11.794Z,4.47
2019-06-07T03:04:44.879Z,4.50
2019-06-07T03:07:15.893Z,4.40
2019-06-07T03:09:47.510Z,4.27
2019-06-07T03:12:20.708Z,4.20
2019-06-07T03:14:53.568Z,4.47
2019-06-07T03:17:56.033Z,4.23
2019-06-07T03:20:29.546Z,5.30
2019-06-07T03:23:02.990Z,4.60
2019-06-07T03:25:39.211Z,5.00
2019-06-07T03:28:10.178Z,6.43
2019-06-07T03:30:58.151Z,5.00
2019-06-07T03:33:13.540Z,5.07
2019-06-07T03:35:44.519Z,5.37
2019-06-07T03:38:15.344Z,5.10
2019-06-07T03:40:46.293Z,5.40
2019-06-07T03:43:17.209Z,5.53
2019-06-07T03:45:47.918Z,5.20
2019-06-07T03:48:18.951Z,5.90
2019-06-07T03:51:03.867Z,6.70
2019-06-07T03:53:22.309Z,6.07
2019-06-07T03:55:53.197Z,6.27
2019-06-07T03:58:34.667Z,6.13
2019-06-07T04:00:58.723Z,7.13
2019-06-07T04:03:36.193Z,6.17
2019-06-07T04:06:01.689Z,6.43
2019-06-07T04:08:34.427Z,6.57
2019-06-07T04:11:05.519Z,5.43
2019-06-07T04:13:41.508Z,6.47
2019-06-07T04:16:09.379Z,7.40
2019-06-07T04:18:41.967Z,6.63
2019-06-07T04:21:13.083Z,6.90
2019-06-07T04:23:45.640Z,6.73
2019-06-07T04:26:16.445Z,7.03
2019-06-07T04:29:31.745Z,6.17
2019-06-07T04:31:19.885Z,5.90
2019-06-07T04:33:51.169Z,5.60
2019-06-07T04:36:39.217Z,4.63
2019-06-07T04:38:56.998Z,5.20
2019-06-07T04:41:30.919Z,5.00
2019-06-07T04:44:03.389Z,5.97
2019-06-07T04:46:38.973Z,5.13
2019-06-07T04:49:06.970Z,5.47
2019-06-07T04:51:42.095Z,5.50
2019-06-07T04:54:10.789Z,6.27
2019-06-07T04:56:44.448Z,7.20
2019-06-07T04:59:59.774Z,6.67
2019-06-07T05:01:47.164Z,7.43
2019-06-07T05:04:18.173Z,8.17
2019-06-07T05:06:49.069Z,7.80
2019-06-07T05:09:20.034Z,8.03
2019-06-07T05:11:50.839Z,9.20
2019-06-07T05:14:21.745Z,7.60
2019-06-07T05:16:52.524Z,8.53
2019-06-07T05:19:23.356Z,9.27
2019-06-07T05:22:04.145Z,8.37
2019-06-07T05:24:27.120Z,8.53
2019-06-07T05:26:58.020Z,8.80
2019-06-07T05:29:30.783Z,7.87
2019-06-07T05:32:02.003Z,9.23
2019-06-07T05:34:34.582Z,9.57
2019-06-07T05:37:11.810Z,7.53
2019-06-07T05:39:41.995Z,7.07
2019-06-07T05:42:10.480Z,6.17
2019-06-07T05:44:45.162Z,3.13
2019-06-07T05:47:13.924Z,3.93
2019-06-07T05:49:47.164Z,2.53
2019-06-07T05:52:17.578Z,2.70
2019-06-07T05:54:48.490Z,2.10
2019-06-07T05:57:19.520Z,2.40
2019-06-07T05:59:50.658Z,2.10
2019-06-07T06:02:24.563Z,2.80
2019-06-07T06:04:53.934Z,2.67
2019-06-07T06:07:25.034Z,2.40
2019-06-07T06:09:55.895Z,2.80
2019-06-07T06:12:35.201Z,2.57
2019-06-07T06:14:59.240Z,2.70
2019-06-07T06:17:30.091Z,2.70
2019-06-07T06:20:01.014Z,2.60
2019-06-07T06:22:31.989Z,3.00
2019-06-07T06:25:30.988Z,2.33
2019-06-07T06:28:05.971Z,2.80
2019-06-07T06:30:09.683Z,2.40
2019-06-07T06:32:46.741Z,2.53
2019-06-07T06:35:13.100Z,2.80
2019-06-07T06:37:48.846Z,2.50
2019-06-07T06:40:17.030Z,2.50
2019-06-07T06:42:49.031Z,3.00
2019-06-07T06:45:20.966Z,2.80
2019-06-07T06:47:51.856Z,3.10
2019-06-07T06:50:23.219Z,2.87
2019-06-07T06:52:54.855Z,3.33
2019-06-07T06:55:27.105Z,2.80
2019-06-07T06:57:57.908Z,2.93
2019-06-07T07:01:01.959Z,3.27
2019-06-07T07:03:54.199Z,2.80
2019-06-07T07:05:55.134Z,3.20
2019-06-07T07:08:26.343Z,4.20
2019-06-07T07:10:57.428Z,2.70
2019-06-07T07:13:28.288Z,3.17
2019-06-07T07:15:59.323Z,3.03
2019-06-07T07:18:30.119Z,2.97
2019-06-07T07:21:00.980Z,2.40
2019-06-07T07:23:32.110Z,2.20
2019-06-07T07:26:03.008Z,2.17
2019-06-07T07:28:34.239Z,2.87
2019-06-07T07:31:05.513Z,2.23
2019-06-07T07:36:23.290Z,2.33
2019-06-07T07:38:41.369Z,1.87
2019-06-07T07:41:15.530Z,1.83
2019-06-07T07:43:51.839Z,2.20
2019-06-07T07:46:29.075Z,2.87
2019-06-07T07:49:08.783Z,2.97
2019-06-07T07:51:39.729Z,2.40
2019-06-07T07:54:11.392Z,2.10
2019-06-07T07:56:42.580Z,2.30
2019-06-07T07:59:13.474Z,2.97
2019-06-07T08:01:46.109Z,2.20
2019-06-07T08:04:17.482Z,2.10
2019-06-07T08:06:48.964Z,3.20
2019-06-07T08:09:20.589Z,2.13
2019-06-07T08:11:52.929Z,1.90
2019-06-07T08:14:24.010Z,2.37
2019-06-07T08:16:57.897Z,2.57
2019-06-07T08:19:27.684Z,2.30
2019-06-07T08:22:01.676Z,2.13
2019-06-07T08:24:31.154Z,4.03
2019-06-07T08:27:24.773Z,2.30
2019-06-07T08:29:45.035Z,2.40
2019-06-07T08:32:07.294Z,4.17
2019-06-07T08:34:38.475Z,4.10
2019-06-07T08:37:09.573Z,3.17
2019-06-07T08:39:40.581Z,3.00
2019-06-07T08:42:17.917Z,1.47
2019-06-07T08:44:43.924Z,2.07
2019-06-07T08:47:20.462Z,2.10
2019-06-07T08:49:47.554Z,2.13
2019-06-07T08:52:18.561Z,2.60
2019-06-07T08:54:50.476Z,2.40
2019-06-07T08:57:22.314Z,1.40
2019-06-07T08:59:55.706Z,2.33
2019-06-07T09:02:26.082Z,1.83
2019-06-07T09:05:00.001Z,1.90
2019-06-07T09:07:29.604Z,1.90
2019-06-07T09:10:08.273Z,2.10
2019-06-07T09:12:32.927Z,2.03
2019-06-07T09:15:17.849Z,2.10
2019-06-07T09:17:36.319Z,2.33
2019-06-07T09:20:32.696Z,1.80
2019-06-07T09:22:40.684Z,2.23
2019-06-07T09:25:20.769Z,1.90
2019-06-07T09:27:45.199Z,1.63
2019-06-07T09:30:18.931Z,1.60
2019-06-07T09:32:49.748Z,1.57
2019-06-07T09:35:20.914Z,2.30
2019-06-07T09:38:07.808Z,1.70
2019-06-07T09:40:31.218Z,2.13
2019-06-07T09:43:47.583Z,1.97
2019-06-07T09:45:34.434Z,1.30
2019-06-07T09:48:12.416Z,1.27
2019-06-07T09:50:37.791Z,1.63
2019-06-07T09:53:21.076Z,1.50
2019-06-07T09:55:41.495Z,1.30
2019-06-07T10:00:45.247Z,1.50
2019-06-07T10:03:21.935Z,2.10
2019-06-07T10:05:49.646Z,2.40
2019-06-07T10:09:26.267Z,1.87
2019-06-07T10:10:52.983Z,1.70
2019-06-07T10:13:23.654Z,1.90
2019-06-07T10:15:54.335Z,2.43
2019-06-07T10:18:25.029Z,1.60
2019-06-07T10:20:55.719Z,1.73
2019-06-07T10:23:26.454Z,1.80
2019-06-07T10:25:57.057Z,1.43
2019-06-07T10:28:27.845Z,1.77
2019-06-07T10:31:00.020Z,1.70
2019-06-07T10:33:30.791Z,1.60
2019-06-07T10:36:02.482Z,1.40
2019-06-07T10:38:33.304Z,1.73
2019-06-07T10:41:04.754Z,1.40
2019-06-07T10:43:35.683Z,1.27
2019-06-07T10:46:07.649Z,1.93
2019-06-07T10:48:38.744Z,1.60
2019-06-07T10:51:13.684Z,1.63
2019-06-07T10:53:42.343Z,2.10
2019-06-07T10:56:13.453Z,1.83
2019-06-07T10:58:44.545Z,1.90
2019-06-07T11:01:15.899Z,2.07
2019-06-07T11:03:46.699Z,2.70
2019-06-07T11:06:17.663Z,1.63
2019-06-07T11:08:48.349Z,1.63
2019-06-07T11:11:19.184Z,1.27
2019-06-07T11:13:52.438Z,1.50
2019-06-07T11:16:22.504Z,2.00
2019-06-07T11:18:53.383Z,1.70
2019-06-07T11:21:24.093Z,1.67
2019-06-07T11:23:54.924Z,2.07
2019-06-07T11:26:25.830Z,2.13
2019-06-07T11:28:57.159Z,2.23
2019-06-07T11:31:27.930Z,1.67
2019-06-07T11:33:58.948Z,1.73
2019-06-07T11:36:29.880Z,1.73
2019-06-07T11:39:00.753Z,1.67
2019-06-07T11:41:31.825Z,1.30
2019-06-07T11:44:02.723Z,1.20
2019-06-07T11:46:33.638Z,1.47
2019-06-07T11:49:04.564Z,1.57
2019-06-07T11:51:35.454Z,1.43
2019-06-07T11:54:07.786Z,1.60
2019-06-07T11:56:38.869Z,1.00
2019-06-07T11:59:11.090Z,1.77
2019-06-07T12:01:42.219Z,1.67
2019-06-07T12:04:14.019Z,2.10
2019-06-07T12:06:45.464Z,2.13
2019-06-07T12:09:16.851Z,1.87
2019-06-07T12:11:47.719Z,1.73
2019-06-07T12:14:19.349Z,1.40
2019-06-07T12:16:50.352Z,3.13
2019-06-07T12:19:21.219Z,1.90
2019-06-07T12:21:52.216Z,1.90
2019-06-07T12:24:23.133Z,4.30
2019-06-07T12:26:54.075Z,3.13
2019-06-07T12:29:25.219Z,1.73
2019-06-07T12:31:56.084Z,1.90
2019-06-07T12:34:27.009Z,1.40
2019-06-07T12:36:58.064Z,2.23
2019-06-07T12:39:29.206Z,2.77
2019-06-07T12:41:59.982Z,2.15
2019-06-07T12:44:31.149Z,1.70
2019-06-07T12:47:02.048Z,1.65
2019-06-07T12:49:32.894Z,1.85
2019-06-07T12:52:03.785Z,1.70
2019-06-07T12:54:34.905Z,2.00
2019-06-07T12:57:06.009Z,1.83
2019-06-07T12:59:36.929Z,1.80
2019-06-07T13:02:07.743Z,2.00
2019-06-07T13:04:38.548Z,1.72
2019-06-07T13:07:09.614Z,2.13
2019-06-07T13:09:40.424Z,1.70
2019-06-07T13:12:11.229Z,2.10
2019-06-07T13:14:42.024Z,1.87
2019-06-07T13:17:12.909Z,1.67
2019-06-07T13:19:43.842Z,2.30
2019-06-07T13:22:16.130Z,4.80
2019-06-07T13:24:47.169Z,1.85
2019-06-07T13:27:18.350Z,2.02
2019-06-07T13:29:49.397Z,2.42
2019-06-07T13:32:21.465Z,2.02
2019-06-07T13:34:52.624Z,1.92
2019-06-07T13:37:23.528Z,2.37
2019-06-07T13:39:54.560Z,2.62
2019-06-07T13:42:25.765Z,2.12
2019-06-07T13:44:56.554Z,1.80
2019-06-07T13:47:27.659Z,1.80
2019-06-07T13:49:58.641Z,2.33
2019-06-07T13:52:29.629Z,1.77
2019-06-07T13:55:02.370Z,1.80
2019-06-07T13:57:33.182Z,2.23
2019-06-07T14:00:10.286Z,2.10
2019-06-07T14:02:37.520Z,1.83
2019-06-07T14:05:09.658Z,2.67
2019-06-07T14:07:40.637Z,2.43
2019-06-07T14:10:12.174Z,2.10
2019-06-07T14:12:43.010Z,1.70
2019-06-07T14:15:15.596Z,2.30
2019-06-07T14:17:46.359Z,2.37
2019-06-07T14:20:17.542Z,2.47
2019-06-07T14:22:50.072Z,2.80
2019-06-07T14:25:21.012Z,2.57
2019-06-07T14:27:51.888Z,2.40
2019-06-07T14:30:23.919Z,2.80
2019-06-07T14:32:55.115Z,2.37
2019-06-07T14:35:26.701Z,2.30
2019-06-07T14:37:57.683Z,2.20
2019-06-07T14:40:30.036Z,2.30
2019-06-07T14:43:01.298Z,2.90
2019-06-07T14:45:32.761Z,3.00
2019-06-07T14:48:04.679Z,3.33
2019-06-07T14:50:35.534Z,3.50
2019-06-07T14:53:06.979Z,3.30
2019-06-07T14:55:37.900Z,3.10
2019-06-07T14:58:08.749Z,3.20
2019-06-07T15:00:45.416Z,3.90
2019-06-07T15:03:16.409Z,3.73
2019-06-07T15:05:47.169Z,4.30
2019-06-07T15:08:18.278Z,4.03
2019-06-07T15:10:49.469Z,3.67
2019-06-07T15:13:20.318Z,4.13
2019-06-07T15:15:51.219Z,10.82
2019-06-07T15:18:21.901Z,4.62
2019-06-07T15:20:52.594Z,3.62
2019-06-07T15:23:23.429Z,3.92
2019-06-07T15:25:54.199Z,3.93
2019-06-07T15:28:25.169Z,4.20
2019-06-07T15:30:56.034Z,3.60
2019-06-07T15:33:27.880Z,4.20
2019-06-07T15:35:58.689Z,3.67
2019-06-07T15:38:30.952Z,2.80
2019-06-07T15:41:01.723Z,7.20
2019-06-07T15:43:33.153Z,5.75
2019-06-07T15:46:03.889Z,4.53
2019-06-07T15:48:35.712Z,5.62
2019-06-07T15:51:06.769Z,5.97
2019-06-07T15:53:42.654Z,5.23
2019-06-07T15:56:10.039Z,5.40
2019-06-07T15:58:41.356Z,5.30
2019-06-07T16:01:12.385Z,5.80
2019-06-07T16:03:43.224Z,5.67
2019-06-07T16:06:14.259Z,5.97
2019-06-07T16:08:45.046Z,5.77
2019-06-07T16:11:16.005Z,5.33
2019-06-07T16:13:47.269Z,4.90
2019-06-07T16:16:18.144Z,6.30
2019-06-07T16:18:49.165Z,6.07
2019-06-07T16:21:20.309Z,6.10
2019-06-07T16:23:51.064Z,5.67
2019-06-07T16:26:21.849Z,5.67
2019-06-07T16:28:52.666Z,6.37
2019-06-07T16:31:23.439Z,6.03
2019-06-07T16:33:54.299Z,5.53
2019-06-07T16:36:25.279Z,5.93
2019-06-07T16:38:56.065Z,5.17
2019-06-07T16:41:26.884Z,5.50
2019-06-07T16:43:57.954Z,5.53
2019-06-07T16:46:28.684Z,5.47
2019-06-07T16:48:59.446Z,5.70
2019-06-07T16:51:30.524Z,5.43
2019-06-07T16:54:01.408Z,5.10
2019-06-07T16:56:32.430Z,5.23
2019-06-07T16:59:03.300Z,4.83
2019-06-07T17:01:34.174Z,4.90
2019-06-07T17:04:05.420Z,5.73
2019-06-07T17:06:37.508Z,6.00
2019-06-07T17:09:09.414Z,5.40
2019-06-07T17:11:40.644Z,5.87
2019-06-07T17:14:11.724Z,6.37
2019-06-07T17:16:43.201Z,6.97
2019-06-07T17:19:14.479Z,6.20
2019-06-07T17:21:45.395Z,6.00
2019-06-07T17:24:16.389Z,6.07
2019-06-07T17:26:47.827Z,8.50
2019-06-07T17:29:18.859Z,6.20
2019-06-07T17:31:50.386Z,5.70
2019-06-07T17:34:21.609Z,5.63
2019-06-07T17:36:52.524Z,5.10
2019-06-07T17:39:23.524Z,4.60
2019-06-07T17:42:01.741Z,5.17
2019-06-07T17:44:26.924Z,5.87
2019-06-07T17:46:57.738Z,7.77
2019-06-07T17:49:28.493Z,8.77
2019-06-07T17:51:59.303Z,9.63
2019-06-07T17:54:30.159Z,9.00
2019-06-07T17:57:01.209Z,7.83
2019-06-07T17:59:32.424Z,6.20
2019-06-07T18:02:14.404Z,5.50
2019-06-07T18:04:36.384Z,5.93
2019-06-07T18:07:08.258Z,6.33
2019-06-07T18:09:40.425Z,7.07
2019-06-07T18:12:11.326Z,7.63
2019-06-07T18:14:42.260Z,6.27
2019-06-07T18:17:13.435Z,4.97
2019-06-07T18:19:45.270Z,2.60
2019-06-07T18:22:16.298Z,3.30
2019-06-07T18:24:48.432Z,2.10
2019-06-07T18:27:19.359Z,2.53
2019-06-07T18:29:50.558Z,2.10
2019-06-07T18:32:21.639Z,2.13
2019-06-07T18:34:52.963Z,2.77
2019-06-07T18:37:23.779Z,1.70
2019-06-07T18:39:55.277Z,1.97
2019-06-07T18:42:26.269Z,1.80
2019-06-07T18:44:57.143Z,2.67
2019-06-07T18:47:28.303Z,2.77
2019-06-07T18:49:59.484Z,1.90
2019-06-07T18:52:34.030Z,2.30
2019-06-07T18:55:05.083Z,2.33
2019-06-07T18:57:36.003Z,2.43
2019-06-07T19:00:08.679Z,2.10
2019-06-07T19:02:39.569Z,1.90
2019-06-07T19:05:11.080Z,2.60
2019-06-07T19:07:42.413Z,1.80
2019-06-07T19:10:15.394Z,1.90
2019-06-07T19:12:46.410Z,2.07
2019-06-07T19:15:18.349Z,2.00
2019-06-07T19:17:49.734Z,1.90
2019-06-07T19:20:21.765Z,1.70
2019-06-07T19:22:54.125Z,2.00
2019-06-07T19:25:25.622Z,2.13
2019-06-07T19:27:57.009Z,2.60
2019-06-07T19:30:29.549Z,2.63
2019-06-07T19:33:01.515Z,2.13
2019-06-07T19:35:32.924Z,2.63
2019-06-07T19:38:04.234Z,2.10
2019-06-07T19:40:35.459Z,2.27
2019-06-07T19:43:06.569Z,1.73
2019-06-07T19:45:37.740Z,2.00
2019-06-07T19:48:08.809Z,1.83
2019-06-07T19:50:39.724Z,1.80
2019-06-07T19:53:10.622Z,1.90
2019-06-07T19:55:41.559Z,2.00
2019-06-07T19:58:12.469Z,1.87
2019-06-07T20:00:43.764Z,1.97
2019-06-07T20:03:14.609Z,2.57
2019-06-07T20:05:45.540Z,2.10
2019-06-07T20:08:16.664Z,3.10
2019-06-07T20:10:48.046Z,2.43
2019-06-07T20:13:19.272Z,2.40
2019-06-07T20:15:50.644Z,8.33
2019-06-07T20:18:21.478Z,4.47
2019-06-07T20:20:52.483Z,2.40
2019-06-07T20:23:23.459Z,3.17
2019-06-07T20:25:54.374Z,3.23
2019-06-07T20:28:25.484Z,4.67
2019-06-07T20:30:57.645Z,3.00
2019-06-07T20:33:28.759Z,2.53
2019-06-07T20:36:00.717Z,3.17
2019-06-07T20:38:32.252Z,3.30
2019-06-07T20:41:03.364Z,2.77
2019-06-07T20:43:34.293Z,2.50
2019-06-07T20:46:06.602Z,2.70
2019-06-07T20:48:37.854Z,3.47
2019-06-07T20:51:08.828Z,3.27
2019-06-07T20:53:39.454Z,3.20
2019-06-07T20:56:10.142Z,2.97
2019-06-07T20:58:41.224Z,3.90
2019-06-07T21:01:12.530Z,3.20
2019-06-07T21:03:43.264Z,3.60
2019-06-07T21:06:14.501Z,3.00
2019-06-07T21:08:45.314Z,3.00
2019-06-07T21:11:16.483Z,2.83
2019-06-07T21:13:47.679Z,2.53
2019-06-07T21:16:18.464Z,2.63
2019-06-07T21:18:49.333Z,2.63
2019-06-07T21:21:20.554Z,3.10
2019-06-07T21:23:51.508Z,3.00
2019-06-07T21:26:22.599Z,2.53
2019-06-07T21:28:53.774Z,2.70
2019-06-07T21:31:24.834Z,2.77
2019-06-07T21:33:55.730Z,2.73
2019-06-07T21:36:26.869Z,3.53
2019-06-07T21:38:57.783Z,4.00
2019-06-07T21:41:28.769Z,4.53
2019-06-07T21:43:59.624Z,4.30
2019-06-07T21:46:30.574Z,3.87
2019-06-07T21:49:02.208Z,3.97
2019-06-07T21:51:33.404Z,3.23
2019-06-07T21:54:06.762Z,3.73
2019-06-07T21:56:36.664Z,3.50
2019-06-07T21:59:07.655Z,3.17
2019-06-07T22:01:38.835Z,3.43
2019-06-07T22:04:09.713Z,3.93
2019-06-07T22:06:40.764Z,3.63
2019-06-07T22:09:12.401Z,4.50
2019-06-07T22:11:43.407Z,4.70
2019-06-07T22:14:14.570Z,4.63
2019-06-07T22:16:45.519Z,5.70
2019-06-07T22:19:16.269Z,5.60
2019-06-07T22:22:01.768Z,6.70
2019-06-07T22:24:19.444Z,6.37
2019-06-07T22:26:50.260Z,6.47
2019-06-07T22:29:21.270Z,6.60
2019-06-07T22:31:52.046Z,6.57
2019-06-07T22:34:23.135Z,4.73
2019-06-07T22:36:54.303Z,4.70
2019-06-07T22:39:25.120Z,3.87
2019-06-07T22:41:56.037Z,3.30
2019-06-07T22:44:27.489Z,3.53
2019-06-07T22:46:58.373Z,3.43
2019-06-07T22:49:29.251Z,3.30
2019-06-07T22:52:08.739Z,3.50
2019-06-07T22:54:32.754Z,3.93
2019-06-07T22:57:10.082Z,3.20
2019-06-07T22:59:41.084Z,3.90
2019-06-07T23:02:12.632Z,3.60
2019-06-07T23:04:43.634Z,3.33
2019-06-07T23:07:14.973Z,3.93
2019-06-07T23:09:45.684Z,3.57
2019-06-07T23:12:17.528Z,3.93
2019-06-07T23:14:48.728Z,3.77
2019-06-07T23:17:20.748Z,4.57
2019-06-07T23:19:52.013Z,4.33
2019-06-07T23:22:23.136Z,4.43
2019-06-07T23:24:54.149Z,4.90
2019-06-07T23:27:25.063Z,5.20
2019-06-07T23:29:55.923Z,5.57
2019-06-07T23:32:26.749Z,5.17
2019-06-07T23:34:57.594Z,5.93
2019-06-07T23:37:28.468Z,6.27
2019-06-07T23:39:59.390Z,6.30
2019-06-07T23:42:30.258Z,6.27
2019-06-07T23:45:01.159Z,6.20
2019-06-07T23:47:32.130Z,6.53
2019-06-07T23:50:03.133Z,6.73
2019-06-07T23:52:34.079Z,6.57
2019-06-07T23:55:05.129Z,6.73
2019-06-07T23:57:36.793Z,5.23
